sensor_id;sensor_type;location;lat;lon;timestamp;temperature;humidity
6865;DHT22;3471;49.678;8.388;2023-02-28T00:01:16;2.00;99.90
6865;DHT22;3471;49.678;8.388;2023-02-28T00:03:42;2.00;99.90
6865;DHT22;3471;49.678;8.388;2023-02-28T00:06:08;2.00;99.90
6865;DHT22;3471;49.678;8.388;2023-02-28T00:08:35;1.90;99.90
6865;DHT22;3471;49.678;8.388;2023-02-28T00:11:05;1.90;99.90
6865;DHT22;3471;49.678;8.388;2023-02-28T00:13:32;1.90;99.90
6865;DHT22;3471;49.678;8.388;2023-02-28T00:16:04;1.90;99.90
6865;DHT22;3471;49.678;8.388;2023-02-28T00:18:30;1.90;99.90
6865;DHT22;3471;49.678;8.388;2023-02-28T00:20:57;1.90;99.90
6865;DHT22;3471;49.678;8.388;2023-02-28T00:23:23;1.90;99.90
6865;DHT22;3471;49.678;8.388;2023-02-28T00:25:50;1.80;99.90
6865;DHT22;3471;49.678;8.388;2023-02-28T00:28:16;1.80;99.90
6865;DHT22;3471;49.678;8.388;2023-02-28T00:30:42;1.80;99.90
6865;DHT22;3471;49.678;8.388;2023-02-28T00:33:07;1.80;99.90
6865;DHT22;3471;49.678;8.388;2023-02-28T00:35:33;1.80;99.90
6865;DHT22;3471;49.678;8.388;2023-02-28T00:37:59;1.80;99.90
6865;DHT22;3471;49.678;8.388;2023-02-28T00:40:24;1.80;99.90
6865;DHT22;3471;49.678;8.388;2023-02-28T00:42:50;1.80;99.90
6865;DHT22;3471;49.678;8.388;2023-02-28T00:45:15;1.80;99.90
6865;DHT22;3471;49.678;8.388;2023-02-28T00:47:41;1.80;99.90
6865;DHT22;3471;49.678;8.388;2023-02-28T00:50:08;1.80;99.90
6865;DHT22;3471;49.678;8.388;2023-02-28T00:52:34;1.80;99.90
6865;DHT22;3471;49.678;8.388;2023-02-28T00:54:59;1.80;99.90
6865;DHT22;3471;49.678;8.388;2023-02-28T00:57:25;1.80;99.90
6865;DHT22;3471;49.678;8.388;2023-02-28T00:59:51;1.80;99.90
6865;DHT22;3471;49.678;8.388;2023-02-28T01:02:20;1.80;99.90
6865;DHT22;3471;49.678;8.388;2023-02-28T01:04:46;1.70;99.90
6865;DHT22;3471;49.678;8.388;2023-02-28T01:07:11;1.70;99.90
6865;DHT22;3471;49.678;8.388;2023-02-28T01:09:37;1.70;99.90
6865;DHT22;3471;49.678;8.388;2023-02-28T01:12:03;1.70;99.90
6865;DHT22;3471;49.678;8.388;2023-02-28T01:14:28;1.60;99.90
6865;DHT22;3471;49.678;8.388;2023-02-28T01:16:54;1.60;99.90
6865;DHT22;3471;49.678;8.388;2023-02-28T01:19:19;1.60;99.90
6865;DHT22;3471;49.678;8.388;2023-02-28T01:21:45;1.50;99.90
6865;DHT22;3471;49.678;8.388;2023-02-28T01:24:10;1.50;99.90
6865;DHT22;3471;49.678;8.388;2023-02-28T01:26:36;1.50;99.90
6865;DHT22;3471;49.678;8.388;2023-02-28T01:29:02;1.50;99.90
6865;DHT22;3471;49.678;8.388;2023-02-28T01:31:27;1.50;99.90
6865;DHT22;3471;49.678;8.388;2023-02-28T01:33:53;1.50;99.90
6865;DHT22;3471;49.678;8.388;2023-02-28T01:36:23;1.50;99.90
6865;DHT22;3471;49.678;8.388;2023-02-28T01:38:49;1.50;99.90
6865;DHT22;3471;49.678;8.388;2023-02-28T01:41:31;1.50;99.90
6865;DHT22;3471;49.678;8.388;2023-02-28T01:46:22;1.50;99.90
6865;DHT22;3471;49.678;8.388;2023-02-28T01:48:49;1.50;99.90
6865;DHT22;3471;49.678;8.388;2023-02-28T01:51:21;1.50;99.90
6865;DHT22;3471;49.678;8.388;2023-02-28T01:53:52;1.40;99.90
6865;DHT22;3471;49.678;8.388;2023-02-28T01:56:24;1.40;99.90
6865;DHT22;3471;49.678;8.388;2023-02-28T01:58:53;1.40;99.90
6865;DHT22;3471;49.678;8.388;2023-02-28T02:01:20;1.40;99.90
6865;DHT22;3471;49.678;8.388;2023-02-28T02:03:52;1.40;99.90
6865;DHT22;3471;49.678;8.388;2023-02-28T02:06:42;1.40;99.90
6865;DHT22;3471;49.678;8.388;2023-02-28T02:09:08;1.40;99.90
6865;DHT22;3471;49.678;8.388;2023-02-28T02:11:35;1.40;99.90
6865;DHT22;3471;49.678;8.388;2023-02-28T02:14:15;1.40;99.90
6865;DHT22;3471;49.678;8.388;2023-02-28T02:19:44;1.30;99.90
6865;DHT22;3471;49.678;8.388;2023-02-28T02:25:42;1.20;99.90
6865;DHT22;3471;49.678;8.388;2023-02-28T02:43:44;1.20;99.90
6865;DHT22;3471;49.678;8.388;2023-02-28T02:45:57;1.20;99.90
6865;DHT22;3471;49.678;8.388;2023-02-28T02:48:27;1.10;99.90
6865;DHT22;3471;49.678;8.388;2023-02-28T02:50:57;1.10;99.90
6865;DHT22;3471;49.678;8.388;2023-02-28T02:53:32;1.10;99.90
6865;DHT22;3471;49.678;8.388;2023-02-28T02:55:59;1.10;99.90
6865;DHT22;3471;49.678;8.388;2023-02-28T02:58:30;1.10;99.90
6865;DHT22;3471;49.678;8.388;2023-02-28T03:01:00;1.10;99.90
6865;DHT22;3471;49.678;8.388;2023-02-28T03:03:28;1.10;99.90
6865;DHT22;3471;49.678;8.388;2023-02-28T03:05:59;1.10;99.90
6865;DHT22;3471;49.678;8.388;2023-02-28T03:08:27;1.10;99.90
6865;DHT22;3471;49.678;8.388;2023-02-28T03:10:58;1.10;99.90
6865;DHT22;3471;49.678;8.388;2023-02-28T03:14:04;1.10;99.90
6865;DHT22;3471;49.678;8.388;2023-02-28T03:17:01;1.10;99.90
6865;DHT22;3471;49.678;8.388;2023-02-28T03:22:52;1.10;99.90
6865;DHT22;3471;49.678;8.388;2023-02-28T03:25:39;1.10;99.90
6865;DHT22;3471;49.678;8.388;2023-02-28T03:30:42;1.10;99.90
6865;DHT22;3471;49.678;8.388;2023-02-28T03:33:15;1.10;99.90
6865;DHT22;3471;49.678;8.388;2023-02-28T03:35:57;1.10;99.90
6865;DHT22;3471;49.678;8.388;2023-02-28T03:38:30;1.00;99.90
6865;DHT22;3471;49.678;8.388;2023-02-28T03:41:27;1.00;99.90
6865;DHT22;3471;49.678;8.388;2023-02-28T03:44:36;0.90;99.90
6865;DHT22;3471;49.678;8.388;2023-02-28T03:47:10;0.90;99.90
6865;DHT22;3471;49.678;8.388;2023-02-28T03:49:49;0.90;99.90
6865;DHT22;3471;49.678;8.388;2023-02-28T03:52:17;0.90;99.90
6865;DHT22;3471;49.678;8.388;2023-02-28T03:54:48;0.90;99.90
6865;DHT22;3471;49.678;8.388;2023-02-28T03:57:33;0.90;99.90
6865;DHT22;3471;49.678;8.388;2023-02-28T04:00:14;0.90;99.90
6865;DHT22;3471;49.678;8.388;2023-02-28T04:02:42;0.90;99.90
6865;DHT22;3471;49.678;8.388;2023-02-28T04:05:08;0.90;99.90
6865;DHT22;3471;49.678;8.388;2023-02-28T04:07:34;0.90;99.90
6865;DHT22;3471;49.678;8.388;2023-02-28T04:10:00;0.90;99.90
6865;DHT22;3471;49.678;8.388;2023-02-28T04:12:25;0.90;99.90
6865;DHT22;3471;49.678;8.388;2023-02-28T04:14:51;0.90;99.90
6865;DHT22;3471;49.678;8.388;2023-02-28T04:17:17;0.90;99.90
6865;DHT22;3471;49.678;8.388;2023-02-28T04:19:43;0.90;99.90
6865;DHT22;3471;49.678;8.388;2023-02-28T04:22:09;1.00;99.90
6865;DHT22;3471;49.678;8.388;2023-02-28T04:24:35;1.00;99.90
6865;DHT22;3471;49.678;8.388;2023-02-28T04:27:01;1.00;99.90
6865;DHT22;3471;49.678;8.388;2023-02-28T04:29:31;1.00;99.90
6865;DHT22;3471;49.678;8.388;2023-02-28T04:32:00;1.00;99.90
6865;DHT22;3471;49.678;8.388;2023-02-28T04:34:28;0.90;99.90
6865;DHT22;3471;49.678;8.388;2023-02-28T04:36:54;0.90;99.90
6865;DHT22;3471;49.678;8.388;2023-02-28T04:39:21;0.90;99.90
6865;DHT22;3471;49.678;8.388;2023-02-28T04:41:47;0.90;99.90
6865;DHT22;3471;49.678;8.388;2023-02-28T04:44:13;0.90;99.90
6865;DHT22;3471;49.678;8.388;2023-02-28T04:46:39;0.90;99.90
6865;DHT22;3471;49.678;8.388;2023-02-28T04:49:05;0.90;99.90
6865;DHT22;3471;49.678;8.388;2023-02-28T04:51:30;0.90;99.90
6865;DHT22;3471;49.678;8.388;2023-02-28T04:53:56;0.90;99.90
6865;DHT22;3471;49.678;8.388;2023-02-28T04:56:22;0.90;99.90
6865;DHT22;3471;49.678;8.388;2023-02-28T04:58:48;0.90;99.90
6865;DHT22;3471;49.678;8.388;2023-02-28T05:01:26;0.90;99.90
6865;DHT22;3471;49.678;8.388;2023-02-28T05:03:55;0.90;99.90
6865;DHT22;3471;49.678;8.388;2023-02-28T05:06:23;0.90;99.90
6865;DHT22;3471;49.678;8.388;2023-02-28T05:08:52;0.90;99.90
6865;DHT22;3471;49.678;8.388;2023-02-28T05:11:24;0.90;99.90
6865;DHT22;3471;49.678;8.388;2023-02-28T05:13:51;0.90;99.90
6865;DHT22;3471;49.678;8.388;2023-02-28T05:16:18;0.90;99.90
6865;DHT22;3471;49.678;8.388;2023-02-28T05:18:44;0.90;99.90
6865;DHT22;3471;49.678;8.388;2023-02-28T05:21:27;0.80;99.90
6865;DHT22;3471;49.678;8.388;2023-02-28T05:23:54;0.80;99.90
6865;DHT22;3471;49.678;8.388;2023-02-28T05:26:20;0.70;99.90
6865;DHT22;3471;49.678;8.388;2023-02-28T05:28:46;0.70;99.90
6865;DHT22;3471;49.678;8.388;2023-02-28T05:31:12;0.70;99.90
6865;DHT22;3471;49.678;8.388;2023-02-28T05:33:37;0.70;99.90
6865;DHT22;3471;49.678;8.388;2023-02-28T05:36:03;0.70;99.90
6865;DHT22;3471;49.678;8.388;2023-02-28T05:38:29;0.60;99.90
6865;DHT22;3471;49.678;8.388;2023-02-28T05:40:55;0.60;99.90
6865;DHT22;3471;49.678;8.388;2023-02-28T05:43:21;0.60;99.90
6865;DHT22;3471;49.678;8.388;2023-02-28T05:45:47;0.50;99.90
6865;DHT22;3471;49.678;8.388;2023-02-28T05:48:12;0.50;99.90
6865;DHT22;3471;49.678;8.388;2023-02-28T05:50:38;0.50;99.90
6865;DHT22;3471;49.678;8.388;2023-02-28T05:53:03;0.50;99.90
6865;DHT22;3471;49.678;8.388;2023-02-28T05:55:29;0.50;99.90
6865;DHT22;3471;49.678;8.388;2023-02-28T05:57:55;0.50;99.90
6865;DHT22;3471;49.678;8.388;2023-02-28T06:00:21;0.50;99.90
6865;DHT22;3471;49.678;8.388;2023-02-28T06:02:47;0.50;99.90
6865;DHT22;3471;49.678;8.388;2023-02-28T06:05:17;0.50;99.90
6865;DHT22;3471;49.678;8.388;2023-02-28T06:07:43;0.50;99.90
6865;DHT22;3471;49.678;8.388;2023-02-28T06:10:13;0.50;99.90
6865;DHT22;3471;49.678;8.388;2023-02-28T06:12:39;0.50;99.90
6865;DHT22;3471;49.678;8.388;2023-02-28T06:15:07;0.50;99.90
6865;DHT22;3471;49.678;8.388;2023-02-28T06:17:35;0.50;99.90
6865;DHT22;3471;49.678;8.388;2023-02-28T06:20:00;0.50;99.90
6865;DHT22;3471;49.678;8.388;2023-02-28T06:22:26;0.50;99.90
6865;DHT22;3471;49.678;8.388;2023-02-28T06:24:52;0.60;99.90
6865;DHT22;3471;49.678;8.388;2023-02-28T06:27:18;0.60;99.90
6865;DHT22;3471;49.678;8.388;2023-02-28T06:29:44;0.60;99.90
6865;DHT22;3471;49.678;8.388;2023-02-28T06:32:10;0.60;99.90
6865;DHT22;3471;49.678;8.388;2023-02-28T06:34:35;0.70;99.90
6865;DHT22;3471;49.678;8.388;2023-02-28T06:37:01;0.70;99.90
6865;DHT22;3471;49.678;8.388;2023-02-28T06:39:28;0.70;99.90
6865;DHT22;3471;49.678;8.388;2023-02-28T06:41:54;0.80;99.90
6865;DHT22;3471;49.678;8.388;2023-02-28T06:44:20;0.80;99.90
6865;DHT22;3471;49.678;8.388;2023-02-28T06:46:46;0.90;99.90
6865;DHT22;3471;49.678;8.388;2023-02-28T06:49:12;0.90;99.90
6865;DHT22;3471;49.678;8.388;2023-02-28T06:51:39;0.90;99.90
6865;DHT22;3471;49.678;8.388;2023-02-28T06:54:07;1.00;99.90
6865;DHT22;3471;49.678;8.388;2023-02-28T06:56:35;1.00;99.90
6865;DHT22;3471;49.678;8.388;2023-02-28T06:59:01;1.10;99.90
6865;DHT22;3471;49.678;8.388;2023-02-28T07:01:26;1.20;99.90
6865;DHT22;3471;49.678;8.388;2023-02-28T07:03:53;1.20;99.90
6865;DHT22;3471;49.678;8.388;2023-02-28T07:06:20;1.20;99.90
6865;DHT22;3471;49.678;8.388;2023-02-28T07:08:48;1.20;99.90
6865;DHT22;3471;49.678;8.388;2023-02-28T07:11:13;1.30;99.90
6865;DHT22;3471;49.678;8.388;2023-02-28T07:13:39;1.30;99.90
6865;DHT22;3471;49.678;8.388;2023-02-28T07:16:06;1.30;99.90
6865;DHT22;3471;49.678;8.388;2023-02-28T07:18:34;1.30;99.90
6865;DHT22;3471;49.678;8.388;2023-02-28T07:21:02;1.30;99.90
6865;DHT22;3471;49.678;8.388;2023-02-28T07:23:28;1.30;99.90
6865;DHT22;3471;49.678;8.388;2023-02-28T07:25:54;1.30;99.90
6865;DHT22;3471;49.678;8.388;2023-02-28T07:28:19;1.40;99.90
6865;DHT22;3471;49.678;8.388;2023-02-28T07:30:45;1.40;99.90
6865;DHT22;3471;49.678;8.388;2023-02-28T07:33:10;1.40;99.90
6865;DHT22;3471;49.678;8.388;2023-02-28T07:35:36;1.50;99.90
6865;DHT22;3471;49.678;8.388;2023-02-28T07:38:02;1.50;99.90
6865;DHT22;3471;49.678;8.388;2023-02-28T07:40:28;1.50;99.90
6865;DHT22;3471;49.678;8.388;2023-02-28T07:42:54;1.60;99.90
6865;DHT22;3471;49.678;8.388;2023-02-28T07:45:20;1.60;99.90
6865;DHT22;3471;49.678;8.388;2023-02-28T07:47:46;1.60;99.90
6865;DHT22;3471;49.678;8.388;2023-02-28T07:50:14;1.70;99.90
6865;DHT22;3471;49.678;8.388;2023-02-28T07:52:40;1.70;99.90
6865;DHT22;3471;49.678;8.388;2023-02-28T07:55:08;1.80;99.90
6865;DHT22;3471;49.678;8.388;2023-02-28T07:57:34;1.90;99.90
6865;DHT22;3471;49.678;8.388;2023-02-28T08:00:00;2.00;99.90
6865;DHT22;3471;49.678;8.388;2023-02-28T08:02:26;2.10;99.90
6865;DHT22;3471;49.678;8.388;2023-02-28T08:04:52;2.20;99.90
6865;DHT22;3471;49.678;8.388;2023-02-28T08:07:18;2.30;99.90
6865;DHT22;3471;49.678;8.388;2023-02-28T08:09:44;2.40;99.90
6865;DHT22;3471;49.678;8.388;2023-02-28T08:12:11;2.50;99.90
6865;DHT22;3471;49.678;8.388;2023-02-28T08:14:37;2.60;99.90
6865;DHT22;3471;49.678;8.388;2023-02-28T08:17:04;2.70;99.90
6865;DHT22;3471;49.678;8.388;2023-02-28T08:19:29;2.80;99.90
6865;DHT22;3471;49.678;8.388;2023-02-28T08:21:56;2.90;99.90
6865;DHT22;3471;49.678;8.388;2023-02-28T08:24:22;3.10;99.90
6865;DHT22;3471;49.678;8.388;2023-02-28T08:26:48;3.20;99.90
6865;DHT22;3471;49.678;8.388;2023-02-28T08:29:13;3.40;99.90
6865;DHT22;3471;49.678;8.388;2023-02-28T08:31:39;3.50;99.90
6865;DHT22;3471;49.678;8.388;2023-02-28T08:34:09;3.60;99.90
6865;DHT22;3471;49.678;8.388;2023-02-28T08:36:36;3.70;99.90
6865;DHT22;3471;49.678;8.388;2023-02-28T08:39:02;3.80;99.90
6865;DHT22;3471;49.678;8.388;2023-02-28T08:41:28;4.00;99.90
6865;DHT22;3471;49.678;8.388;2023-02-28T08:43:53;4.10;99.90
6865;DHT22;3471;49.678;8.388;2023-02-28T08:46:19;4.40;99.90
6865;DHT22;3471;49.678;8.388;2023-02-28T08:48:45;4.50;99.90
6865;DHT22;3471;49.678;8.388;2023-02-28T08:51:13;4.70;99.90
6865;DHT22;3471;49.678;8.388;2023-02-28T08:53:40;4.90;99.90
6865;DHT22;3471;49.678;8.388;2023-02-28T08:56:11;5.00;99.90
6865;DHT22;3471;49.678;8.388;2023-02-28T08:58:37;5.10;99.90
6865;DHT22;3471;49.678;8.388;2023-02-28T09:01:18;5.20;99.90
6865;DHT22;3471;49.678;8.388;2023-02-28T09:03:45;5.30;99.90
6865;DHT22;3471;49.678;8.388;2023-02-28T09:06:11;5.40;99.90
6865;DHT22;3471;49.678;8.388;2023-02-28T09:08:38;5.50;99.90
6865;DHT22;3471;49.678;8.388;2023-02-28T09:11:04;5.70;99.90
6865;DHT22;3471;49.678;8.388;2023-02-28T09:13:31;5.70;99.90
6865;DHT22;3471;49.678;8.388;2023-02-28T09:15:58;5.80;99.90
6865;DHT22;3471;49.678;8.388;2023-02-28T09:18:24;6.00;99.90
6865;DHT22;3471;49.678;8.388;2023-02-28T09:20:50;6.10;99.90
6865;DHT22;3471;49.678;8.388;2023-02-28T09:23:16;6.20;99.90
6865;DHT22;3471;49.678;8.388;2023-02-28T09:25:50;6.30;99.90
6865;DHT22;3471;49.678;8.388;2023-02-28T09:28:18;6.30;99.90
6865;DHT22;3471;49.678;8.388;2023-02-28T09:30:49;6.30;99.90
6865;DHT22;3471;49.678;8.388;2023-02-28T09:33:16;6.40;99.90
6865;DHT22;3471;49.678;8.388;2023-02-28T09:35:42;6.50;99.90
6865;DHT22;3471;49.678;8.388;2023-02-28T09:38:09;6.60;99.90
6865;DHT22;3471;49.678;8.388;2023-02-28T09:40:48;6.60;99.90
6865;DHT22;3471;49.678;8.388;2023-02-28T09:43:15;6.70;99.90
6865;DHT22;3471;49.678;8.388;2023-02-28T09:45:42;6.80;99.90
6865;DHT22;3471;49.678;8.388;2023-02-28T09:48:16;6.80;99.90
6865;DHT22;3471;49.678;8.388;2023-02-28T09:50:49;6.80;99.90
6865;DHT22;3471;49.678;8.388;2023-02-28T09:53:21;6.80;99.90
6865;DHT22;3471;49.678;8.388;2023-02-28T09:55:58;6.70;99.90
6865;DHT22;3471;49.678;8.388;2023-02-28T10:06:25;7.00;99.90
6865;DHT22;3471;49.678;8.388;2023-02-28T10:09:10;7.10;99.20
6865;DHT22;3471;49.678;8.388;2023-02-28T10:11:39;7.10;98.80
6865;DHT22;3471;49.678;8.388;2023-02-28T10:14:21;7.10;98.30
6865;DHT22;3471;49.678;8.388;2023-02-28T10:16:55;7.10;98.20
6865;DHT22;3471;49.678;8.388;2023-02-28T10:19:23;7.00;99.50
6865;DHT22;3471;49.678;8.388;2023-02-28T10:24:29;6.90;99.90
6865;DHT22;3471;49.678;8.388;2023-02-28T10:27:00;7.00;98.90
6865;DHT22;3471;49.678;8.388;2023-02-28T10:29:28;7.10;99.60
6865;DHT22;3471;49.678;8.388;2023-02-28T10:32:01;7.20;99.20
6865;DHT22;3471;49.678;8.388;2023-02-28T10:37:30;7.50;98.30
6865;DHT22;3471;49.678;8.388;2023-02-28T10:39:57;7.60;98.40
6865;DHT22;3471;49.678;8.388;2023-02-28T10:42:25;7.70;99.00
6865;DHT22;3471;49.678;8.388;2023-02-28T10:45:13;7.90;97.90
6865;DHT22;3471;49.678;8.388;2023-02-28T10:47:58;8.20;99.00
6865;DHT22;3471;49.678;8.388;2023-02-28T10:50:50;8.50;97.90
6865;DHT22;3471;49.678;8.388;2023-02-28T10:58:31;9.30;97.50
6865;DHT22;3471;49.678;8.388;2023-02-28T11:00:58;9.60;96.10
6865;DHT22;3471;49.678;8.388;2023-02-28T11:03:33;9.90;95.60
6865;DHT22;3471;49.678;8.388;2023-02-28T11:06:05;10.10;95.60
6865;DHT22;3471;49.678;8.388;2023-02-28T11:08:31;10.20;94.00
6865;DHT22;3471;49.678;8.388;2023-02-28T11:11:01;10.30;94.60
6865;DHT22;3471;49.678;8.388;2023-02-28T11:13:32;10.60;93.80
6865;DHT22;3471;49.678;8.388;2023-02-28T11:16:02;10.80;93.60
6865;DHT22;3471;49.678;8.388;2023-02-28T11:18:52;11.20;94.20
6865;DHT22;3471;49.678;8.388;2023-02-28T11:21:25;11.50;92.80
6865;DHT22;3471;49.678;8.388;2023-02-28T11:23:57;11.80;92.00
6865;DHT22;3471;49.678;8.388;2023-02-28T11:26:37;12.00;91.80
6865;DHT22;3471;49.678;8.388;2023-02-28T11:29:11;12.30;91.50
6865;DHT22;3471;49.678;8.388;2023-02-28T11:31:39;12.70;91.00
6865;DHT22;3471;49.678;8.388;2023-02-28T11:34:24;13.00;86.80
6865;DHT22;3471;49.678;8.388;2023-02-28T11:36:51;13.20;89.80
6865;DHT22;3471;49.678;8.388;2023-02-28T11:39:17;13.20;88.10
6865;DHT22;3471;49.678;8.388;2023-02-28T11:42:18;13.10;86.70
6865;DHT22;3471;49.678;8.388;2023-02-28T11:45:09;13.40;87.80
6865;DHT22;3471;49.678;8.388;2023-02-28T11:48:15;13.90;87.30
6865;DHT22;3471;49.678;8.388;2023-02-28T11:51:19;14.30;87.20
6865;DHT22;3471;49.678;8.388;2023-02-28T11:54:02;14.80;82.30
6865;DHT22;3471;49.678;8.388;2023-02-28T11:56:54;15.30;81.80
6865;DHT22;3471;49.678;8.388;2023-02-28T12:02:29;15.90;78.80
6865;DHT22;3471;49.678;8.388;2023-02-28T12:20:53;16.90;71.80
6865;DHT22;3471;49.678;8.388;2023-02-28T12:23:26;16.70;75.50
6865;DHT22;3471;49.678;8.388;2023-02-28T12:26:02;16.70;72.60
6865;DHT22;3471;49.678;8.388;2023-02-28T12:28:40;16.90;70.30
6865;DHT22;3471;49.678;8.388;2023-02-28T12:31:24;16.90;69.30
6865;DHT22;3471;49.678;8.388;2023-02-28T12:33:53;16.90;68.20
6865;DHT22;3471;49.678;8.388;2023-02-28T12:36:22;17.10;71.60
6865;DHT22;3471;49.678;8.388;2023-02-28T12:41:49;17.90;70.40
6865;DHT22;3471;49.678;8.388;2023-02-28T12:44:27;18.00;66.30
6865;DHT22;3471;49.678;8.388;2023-02-28T12:46:57;17.60;68.40
6865;DHT22;3471;49.678;8.388;2023-02-28T12:49:30;17.60;67.70
6865;DHT22;3471;49.678;8.388;2023-02-28T12:51:58;17.70;64.30
6865;DHT22;3471;49.678;8.388;2023-02-28T12:54:42;17.70;66.60
6865;DHT22;3471;49.678;8.388;2023-02-28T12:57:27;17.60;66.80
6865;DHT22;3471;49.678;8.388;2023-02-28T13:00:01;17.90;65.80
6865;DHT22;3471;49.678;8.388;2023-02-28T13:10:15;19.60;63.90
6865;DHT22;3471;49.678;8.388;2023-02-28T13:12:50;19.90;61.40
6865;DHT22;3471;49.678;8.388;2023-02-28T13:15:26;20.00;63.20
6865;DHT22;3471;49.678;8.388;2023-02-28T13:17:56;20.20;63.10
6865;DHT22;3471;49.678;8.388;2023-02-28T13:20:35;20.30;61.40
6865;DHT22;3471;49.678;8.388;2023-02-28T13:23:03;20.40;60.60
6865;DHT22;3471;49.678;8.388;2023-02-28T13:28:00;19.80;60.50
6865;DHT22;3471;49.678;8.388;2023-02-28T13:35:45;19.80;61.60
6865;DHT22;3471;49.678;8.388;2023-02-28T13:38:56;19.90;58.90
6865;DHT22;3471;49.678;8.388;2023-02-28T13:49:27;19.40;59.40
6865;DHT22;3471;49.678;8.388;2023-02-28T14:00:44;17.70;61.10
6865;DHT22;3471;49.678;8.388;2023-02-28T14:08:34;18.50;61.70
6865;DHT22;3471;49.678;8.388;2023-02-28T14:11:05;18.80;60.30
6865;DHT22;3471;49.678;8.388;2023-02-28T14:13:41;19.10;60.20
6865;DHT22;3471;49.678;8.388;2023-02-28T14:16:13;19.50;60.50
6865;DHT22;3471;49.678;8.388;2023-02-28T14:19:04;19.80;59.80
6865;DHT22;3471;49.678;8.388;2023-02-28T14:21:35;20.20;61.30
6865;DHT22;3471;49.678;8.388;2023-02-28T14:32:33;21.30;56.50
6865;DHT22;3471;49.678;8.388;2023-02-28T14:37:44;21.20;57.70
6865;DHT22;3471;49.678;8.388;2023-02-28T14:40:39;21.10;57.80
6865;DHT22;3471;49.678;8.388;2023-02-28T14:43:18;21.10;59.00
6865;DHT22;3471;49.678;8.388;2023-02-28T14:45:44;21.10;54.70
6865;DHT22;3471;49.678;8.388;2023-02-28T14:48:16;21.10;53.10
6865;DHT22;3471;49.678;8.388;2023-02-28T14:50:49;21.10;55.70
6865;DHT22;3471;49.678;8.388;2023-02-28T14:53:18;21.10;56.50
6865;DHT22;3471;49.678;8.388;2023-02-28T14:55:46;21.00;56.70
6865;DHT22;3471;49.678;8.388;2023-02-28T14:58:31;21.00;57.70
6865;DHT22;3471;49.678;8.388;2023-02-28T15:00:59;21.00;55.30
6865;DHT22;3471;49.678;8.388;2023-02-28T15:03:37;20.90;57.50
6865;DHT22;3471;49.678;8.388;2023-02-28T15:06:21;20.50;57.70
6865;DHT22;3471;49.678;8.388;2023-02-28T15:09:10;20.40;56.40
6865;DHT22;3471;49.678;8.388;2023-02-28T15:11:37;20.20;56.80
6865;DHT22;3471;49.678;8.388;2023-02-28T15:14:04;20.10;54.30
6865;DHT22;3471;49.678;8.388;2023-02-28T15:16:31;19.80;55.10
6865;DHT22;3471;49.678;8.388;2023-02-28T15:19:03;19.50;54.20
6865;DHT22;3471;49.678;8.388;2023-02-28T15:21:33;19.30;56.20
6865;DHT22;3471;49.678;8.388;2023-02-28T15:26:58;18.60;55.90
6865;DHT22;3471;49.678;8.388;2023-02-28T15:29:27;17.80;55.40
6865;DHT22;3471;49.678;8.388;2023-02-28T15:32:03;16.80;53.80
6865;DHT22;3471;49.678;8.388;2023-02-28T15:34:41;15.80;56.60
6865;DHT22;3471;49.678;8.388;2023-02-28T15:39:52;13.80;60.20
6865;DHT22;3471;49.678;8.388;2023-02-28T15:42:20;13.10;61.10
6865;DHT22;3471;49.678;8.388;2023-02-28T15:44:46;12.50;60.50
6865;DHT22;3471;49.678;8.388;2023-02-28T15:47:19;11.90;60.90
6865;DHT22;3471;49.678;8.388;2023-02-28T15:49:52;11.30;62.70
6865;DHT22;3471;49.678;8.388;2023-02-28T15:52:22;10.90;62.30
6865;DHT22;3471;49.678;8.388;2023-02-28T15:54:49;10.50;64.00
6865;DHT22;3471;49.678;8.388;2023-02-28T15:57:22;10.20;68.50
6865;DHT22;3471;49.678;8.388;2023-02-28T15:59:52;9.90;70.40
6865;DHT22;3471;49.678;8.388;2023-02-28T16:02:22;9.70;69.10
6865;DHT22;3471;49.678;8.388;2023-02-28T16:07:21;9.30;68.80
6865;DHT22;3471;49.678;8.388;2023-02-28T16:09:47;9.20;68.70
6865;DHT22;3471;49.678;8.388;2023-02-28T16:12:13;9.20;70.10
6865;DHT22;3471;49.678;8.388;2023-02-28T16:14:39;9.10;69.80
6865;DHT22;3471;49.678;8.388;2023-02-28T16:17:07;9.00;68.00
6865;DHT22;3471;49.678;8.388;2023-02-28T16:19:38;8.90;68.30
6865;DHT22;3471;49.678;8.388;2023-02-28T16:22:03;8.80;68.50
6865;DHT22;3471;49.678;8.388;2023-02-28T16:24:29;8.60;72.00
6865;DHT22;3471;49.678;8.388;2023-02-28T16:26:55;8.50;71.60
6865;DHT22;3471;49.678;8.388;2023-02-28T16:29:26;8.50;72.10
6865;DHT22;3471;49.678;8.388;2023-02-28T16:31:54;8.40;73.00
6865;DHT22;3471;49.678;8.388;2023-02-28T16:34:20;8.40;75.20
6865;DHT22;3471;49.678;8.388;2023-02-28T16:36:47;8.30;72.60
6865;DHT22;3471;49.678;8.388;2023-02-28T16:39:13;8.30;73.20
6865;DHT22;3471;49.678;8.388;2023-02-28T16:41:42;8.20;72.80
6865;DHT22;3471;49.678;8.388;2023-02-28T16:44:26;8.20;71.90
6865;DHT22;3471;49.678;8.388;2023-02-28T16:46:52;8.10;72.00
6865;DHT22;3471;49.678;8.388;2023-02-28T16:49:18;8.10;72.50
6865;DHT22;3471;49.678;8.388;2023-02-28T16:51:44;8.00;72.20
6865;DHT22;3471;49.678;8.388;2023-02-28T16:54:09;8.00;73.10
6865;DHT22;3471;49.678;8.388;2023-02-28T16:56:35;7.90;73.60
6865;DHT22;3471;49.678;8.388;2023-02-28T16:59:02;7.80;73.60
6865;DHT22;3471;49.678;8.388;2023-02-28T17:01:27;7.70;73.80
6865;DHT22;3471;49.678;8.388;2023-02-28T17:03:54;7.70;73.60
6865;DHT22;3471;49.678;8.388;2023-02-28T17:06:25;7.60;75.20
6865;DHT22;3471;49.678;8.388;2023-02-28T17:08:53;7.50;74.10
6865;DHT22;3471;49.678;8.388;2023-02-28T17:11:19;7.40;74.30
6865;DHT22;3471;49.678;8.388;2023-02-28T17:13:45;7.30;75.80
6865;DHT22;3471;49.678;8.388;2023-02-28T17:16:25;7.30;76.10
6865;DHT22;3471;49.678;8.388;2023-02-28T17:18:58;7.20;76.20
6865;DHT22;3471;49.678;8.388;2023-02-28T17:21:24;7.10;79.70
6865;DHT22;3471;49.678;8.388;2023-02-28T17:23:50;7.00;76.20
6865;DHT22;3471;49.678;8.388;2023-02-28T17:26:17;7.00;79.50
6865;DHT22;3471;49.678;8.388;2023-02-28T17:28:45;6.90;78.20
6865;DHT22;3471;49.678;8.388;2023-02-28T17:31:11;6.90;78.00
6865;DHT22;3471;49.678;8.388;2023-02-28T17:33:36;6.80;76.90
6865;DHT22;3471;49.678;8.388;2023-02-28T17:36:02;6.80;77.40
6865;DHT22;3471;49.678;8.388;2023-02-28T17:38:28;6.70;77.90
6865;DHT22;3471;49.678;8.388;2023-02-28T17:40:53;6.60;77.50
6865;DHT22;3471;49.678;8.388;2023-02-28T17:43:26;6.60;77.30
6865;DHT22;3471;49.678;8.388;2023-02-28T17:45:52;6.50;81.90
6865;DHT22;3471;49.678;8.388;2023-02-28T17:48:17;6.40;81.00
6865;DHT22;3471;49.678;8.388;2023-02-28T17:50:43;6.40;78.90
6865;DHT22;3471;49.678;8.388;2023-02-28T17:53:09;6.30;82.00
6865;DHT22;3471;49.678;8.388;2023-02-28T17:55:35;6.30;79.60
6865;DHT22;3471;49.678;8.388;2023-02-28T17:58:01;6.30;79.20
6865;DHT22;3471;49.678;8.388;2023-02-28T18:00:28;6.30;79.60
6865;DHT22;3471;49.678;8.388;2023-02-28T18:02:54;6.30;81.00
6865;DHT22;3471;49.678;8.388;2023-02-28T18:05:20;6.30;78.90
6865;DHT22;3471;49.678;8.388;2023-02-28T18:07:45;6.20;80.20
6865;DHT22;3471;49.678;8.388;2023-02-28T18:10:16;6.20;78.50
6865;DHT22;3471;49.678;8.388;2023-02-28T18:12:45;6.20;79.10
6865;DHT22;3471;49.678;8.388;2023-02-28T18:15:11;6.10;80.40
6865;DHT22;3471;49.678;8.388;2023-02-28T18:17:36;6.10;81.50
6865;DHT22;3471;49.678;8.388;2023-02-28T18:20:02;6.00;80.80
6865;DHT22;3471;49.678;8.388;2023-02-28T18:22:29;6.00;83.50
6865;DHT22;3471;49.678;8.388;2023-02-28T18:24:55;5.90;84.30
6865;DHT22;3471;49.678;8.388;2023-02-28T18:27:20;5.80;85.10
6865;DHT22;3471;49.678;8.388;2023-02-28T18:29:46;5.80;86.70
6865;DHT22;3471;49.678;8.388;2023-02-28T18:32:13;5.70;84.70
6865;DHT22;3471;49.678;8.388;2023-02-28T18:34:39;5.70;84.50
6865;DHT22;3471;49.678;8.388;2023-02-28T18:37:05;5.60;86.90
6865;DHT22;3471;49.678;8.388;2023-02-28T18:39:30;5.60;89.30